METAR Data
IDs: Format: Raw Decoded Include TAF

Data at: 1346 UTC 13 Dec 2019

KROG 131258Z 14003KT 10SM BKN040 OVC110 04/M02 A2994 RMK AO2 SLP143 T00441017
KROG 131158Z 10004KT 10SM OVC042 05/M02 A2995 RMK AO2 SLP142 T00501017 10061 20039 58012
KROG 131058Z AUTO 14003KT 10SM OVC044 05/M02 A2996 RMK AO2 SLP146 T00501017
KROG 130958Z AUTO 00000KT 10SM SCT044 OVC110 04/M02 A2997 RMK AO2 SLP149 T00441017
KROG 130858Z AUTO 13003KT 10SM BKN110 04/M02 A2998 RMK AO2 SLP153 T00441022 56020
KROG 130758Z AUTO 16003KT 10SM FEW044 BKN110 06/M03 A3000 RMK AO2 SLP158 T00561028
KROG 130658Z AUTO 21004KT 10SM OVC042 06/M03 A3002 RMK AO2 SLP164 T00611028
KROG 130558Z AUTO 18004KT 10SM OVC042 06/M03 A3004 RMK AO2 SLP174 T00561033 10078 20050 401280028 58009
KROG 130458Z AUTO 17003KT 10SM BKN060 05/M04 A3007 RMK AO2 SLP184 T00501039
KROG 130358Z AUTO 00000KT 10SM CLR 06/M05 A3007 RMK AO2 SLP187 T00561050
KROG 130258Z AUTO 15005KT 10SM OVC065 06/M05 A3007 RMK AO2 SLP186 T00561050 58004
KROG 130158Z AUTO 15004KT 10SM CLR 06/M06 A3008 RMK AO2 SLP189 T00611056
KROG 130058Z 18006KT 10SM CLR 06/M06 A3008 RMK AO2 SLP189 T00611056
KROG 122358Z 19004KT 10SM CLR 08/M07 A3009 RMK AO2 SLP190 T00781072 10128 20078 50000
KROG 122258Z 19007KT 10SM CLR 08/M07 A3008 RMK AO2 SLP189 T00831072
KROG 122158Z 20010KT 10SM CLR 12/M08 A3009 RMK AO2 SLP191 T01171078
KROG 122058Z 16013KT 10SM CLR 12/M09 A3009 RMK AO2 SLP188 T01221089 56042
KROG 121958Z 21015G18KT 10SM CLR 13/M10 A3012 RMK AO2 SLP200 T01281100
KROG 121858Z 20017G22KT 10SM CLR 12/M10 A3017 RMK AO2 SLP216 T01221100
KROG 121758Z 17013G20KT 10SM CLR 11/M09 A3022 RMK AO2 PRESFR SLP234 T01111094 10117 20044 58024
KROG 121658Z 18013KT 10SM CLR 09/M08 A3026 RMK AO2 SLP250 T00891078
KROG 121558Z 17010KT 10SM CLR 07/M07 A3029 RMK AO2 SLP261 T00721067
KROG 121458Z 16008KT 10SM CLR 06/M06 A3029 RMK AO2 SLP261 T00611061 58009
KROG 121358Z 17012KT 10SM CLR 05/M06 A3030 RMK AO2 SLP266 T00501056
KROG 121258Z 16010KT 10SM CLR 04/M06 A3031 RMK AO2 SLP267 T00441056
KROG 121158Z 17008KT 10SM CLR 04/M06 A3032 RMK AO2 SLP271 T00441056 10050 20028 55000
KROG 121058Z AUTO 18009KT 10SM CLR 04/M06 A3032 RMK AO2 SLP270 T00441056
KROG 120958Z AUTO 17010KT 10SM CLR 05/M06 A3032 RMK AO2 SLP267 T00501056
KROG 120858Z AUTO 16008KT 10SM CLR 04/M06 A3032 RMK AO2 SLP268 T00441056 56014
KROG 120758Z AUTO 15005KT 10SM CLR 04/M06 A3032 RMK AO2 SLP270 T00441056
KROG 120658Z AUTO 14007KT 10SM CLR 03/M05 A3033 RMK AO2 SLP275 T00331050
KROG 120558Z AUTO 16005KT 10SM CLR 03/M04 A3036 RMK AO2 SLP284 T00281044 10067 20022 401111033 56001
KROG 120458Z AUTO 16006KT 10SM CLR 03/M04 A3037 RMK AO2 SLP287 T00331044
KROG 120358Z AUTO 16007KT 10SM CLR 04/M06 A3036 RMK AO2 SLP287 T00391056
KROG 120258Z AUTO 15007KT 10SM CLR 04/M07 A3037 RMK AO2 SLP289 T00441067 58007
KROG 120158Z AUTO 16007KT 10SM CLR 05/M07 A3037 RMK AO2 SLP293 T00501067